Aviation Digital Data Service (ADDS)

Output produced by METARs form (1133 UTC 17 June 2019)
found at http://www.aviationweather.gov/metar/data/
 
METAR text: VEPY 171000Z 00000KT 0300 FG VV/// 23/20 Q1008 NOSIG
Conditions at: VEPY observed 1000 UTC 17 June 2019
Temperature: 23.0°C (73°F)
Dewpoint: 20.0°C (68°F) [RH = 83%]
Pressure (altimeter): 29.76 inches Hg (1008.0 mb)
Winds: calm
Visibility: 0.19 miles (0.31 km)
Ceiling: indefinite ceiling with vertical visibility of 0 feet AGL
Clouds: obscured sky
Weather: FG  (fog)

METAR text: VEPY 170930Z 00000KT 0300 FG VV/// 23/20 Q1008 NOSIG
Conditions at: VEPY observed 0930 UTC 17 June 2019
Temperature: 23.0°C (73°F)
Dewpoint: 20.0°C (68°F) [RH = 83%]
Pressure (altimeter): 29.76 inches Hg (1008.0 mb)
Winds: calm
Visibility: 0.19 miles (0.31 km)
Ceiling: indefinite ceiling with vertical visibility of 0 feet AGL
Clouds: obscured sky
Weather: FG  (fog)

METAR text: VEPY 170900Z 00000KT 0300 FG VV/// 23/20 Q1009 NOSIG
Conditions at: VEPY observed 0900 UTC 17 June 2019
Temperature: 23.0°C (73°F)
Dewpoint: 20.0°C (68°F) [RH = 83%]
Pressure (altimeter): 29.79 inches Hg (1009.0 mb)
Winds: calm
Visibility: 0.19 miles (0.31 km)
Ceiling: indefinite ceiling with vertical visibility of 0 feet AGL
Clouds: obscured sky
Weather: FG  (fog)

METAR text: VEPY 170830Z 24002KT 0100 FG VV/// 24/20 Q1009 NOSIG
Conditions at: VEPY observed 0830 UTC 17 June 2019
Temperature: 24.0°C (75°F)
Dewpoint: 20.0°C (68°F) [RH = 78%]
Pressure (altimeter): 29.79 inches Hg (1009.0 mb)
Winds: from the WSW (240 degrees) at 2 MPH (2 knots; 1.0 m/s)
Visibility: 0.06 miles (0.10 km)
Ceiling: indefinite ceiling with vertical visibility of 0 feet AGL
Clouds: obscured sky
Weather: FG  (fog)

METAR text: VEPY 170800Z 24002KT 0050 FG VV/// 24/20 Q1009 NOSIG
Conditions at: VEPY observed 0800 UTC 17 June 2019
Temperature: 24.0°C (75°F)
Dewpoint: 20.0°C (68°F) [RH = 78%]
Pressure (altimeter): 29.79 inches Hg (1009.0 mb)
Winds: from the WSW (240 degrees) at 2 MPH (2 knots; 1.0 m/s)
Visibility: 0.03 miles (0.05 km)
Ceiling: indefinite ceiling with vertical visibility of 0 feet AGL
Clouds: obscured sky
Weather: FG  (fog)

METAR text: VEPY 170730Z 22002KT 0050 FG VV/// 24/20 Q1009 NOSIG
Conditions at: VEPY observed 0730 UTC 17 June 2019
Temperature: 24.0°C (75°F)
Dewpoint: 20.0°C (68°F) [RH = 78%]
Pressure (altimeter): 29.79 inches Hg (1009.0 mb)
Winds: from the SW (220 degrees) at 2 MPH (2 knots; 1.0 m/s)
Visibility: 0.03 miles (0.05 km)
Ceiling: indefinite ceiling with vertical visibility of 0 feet AGL
Clouds: obscured sky
Weather: FG  (fog)

METAR text: VEPY 170700Z 22003KT 0050 FG VV/// 24/20 Q1009 NOSIG
Conditions at: VEPY observed 0700 UTC 17 June 2019
Temperature: 24.0°C (75°F)
Dewpoint: 20.0°C (68°F) [RH = 78%]
Pressure (altimeter): 29.79 inches Hg (1009.0 mb)
Winds: from the SW (220 degrees) at 3 MPH (3 knots; 1.5 m/s)
Visibility: 0.03 miles (0.05 km)
Ceiling: indefinite ceiling with vertical visibility of 0 feet AGL
Clouds: obscured sky
Weather: FG  (fog)

METAR text: VEPY 170630Z 22004KT 0050 FG VV/// 24/20 Q1009 NOSIG
Conditions at: VEPY observed 0630 UTC 17 June 2019
Temperature: 24.0°C (75°F)
Dewpoint: 20.0°C (68°F) [RH = 78%]
Pressure (altimeter): 29.79 inches Hg (1009.0 mb)
Winds: from the SW (220 degrees) at 5 MPH (4 knots; 2.1 m/s)
Visibility: 0.03 miles (0.05 km)
Ceiling: indefinite ceiling with vertical visibility of 0 feet AGL
Clouds: obscured sky
Weather: FG  (fog)

METAR text: VEPY 170600Z 00000KT 0500 FG SCT008 BKN090 24/20 Q1009 NOSIG
Conditions at: VEPY observed 0600 UTC 17 June 2019
Temperature: 24.0°C (75°F)
Dewpoint: 20.0°C (68°F) [RH = 78%]
Pressure (altimeter): 29.79 inches Hg (1009.0 mb)
Winds: calm
Visibility: 0.31 miles (0.50 km)
Ceiling: 9000 feet AGL
Clouds: scattered clouds at 800 feet AGL
broken clouds at 9000 feet AGL
Weather: FG  (fog)

METAR text: VEPY 170530Z 24002KT 0500 FG SCT008 BKN090 24/20 Q1009 NOSIG
Conditions at: VEPY observed 0530 UTC 17 June 2019
Temperature: 24.0°C (75°F)
Dewpoint: 20.0°C (68°F) [RH = 78%]
Pressure (altimeter): 29.79 inches Hg (1009.0 mb)
Winds: from the WSW (240 degrees) at 2 MPH (2 knots; 1.0 m/s)
Visibility: 0.31 miles (0.50 km)
Ceiling: 9000 feet AGL
Clouds: scattered clouds at 800 feet AGL
broken clouds at 9000 feet AGL
Weather: FG  (fog)

METAR text: VEPY 170500Z 16002KT 0900 FG SCT008 BKN090 23/20 Q1009 NOSIG
Conditions at: VEPY observed 0500 UTC 17 June 2019
Temperature: 23.0°C (73°F)
Dewpoint: 20.0°C (68°F) [RH = 83%]
Pressure (altimeter): 29.79 inches Hg (1009.0 mb)
Winds: from the SSE (160 degrees) at 2 MPH (2 knots; 1.0 m/s)
Visibility: 0.56 miles (0.90 km)
Ceiling: 9000 feet AGL
Clouds: scattered clouds at 800 feet AGL
broken clouds at 9000 feet AGL
Weather: FG  (fog)

METAR text: VEPY 170430Z 22002KT 0050 FG VV/// 23/20 Q1010 NOSIG
Conditions at: VEPY observed 0430 UTC 17 June 2019
Temperature: 23.0°C (73°F)
Dewpoint: 20.0°C (68°F) [RH = 83%]
Pressure (altimeter): 29.82 inches Hg (1010.0 mb)
Winds: from the SW (220 degrees) at 2 MPH (2 knots; 1.0 m/s)
Visibility: 0.03 miles (0.05 km)
Ceiling: indefinite ceiling with vertical visibility of 0 feet AGL
Clouds: obscured sky
Weather: FG  (fog)

METAR text: VEPY 170400Z 22002KT 0100 FG VV/// 23/19 Q1009 NOSIG
Conditions at: VEPY observed 0400 UTC 17 June 2019
Temperature: 23.0°C (73°F)
Dewpoint: 19.0°C (66°F) [RH = 78%]
Pressure (altimeter): 29.79 inches Hg (1009.0 mb)
Winds: from the SW (220 degrees) at 2 MPH (2 knots; 1.0 m/s)
Visibility: 0.06 miles (0.10 km)
Ceiling: indefinite ceiling with vertical visibility of 0 feet AGL
Clouds: obscured sky
Weather: FG  (fog)

METAR text: VEPY 170330Z 22002KT 0050 FG VV/// 23/19 Q1009 NOSIG
Conditions at: VEPY observed 0330 UTC 17 June 2019
Temperature: 23.0°C (73°F)
Dewpoint: 19.0°C (66°F) [RH = 78%]
Pressure (altimeter): 29.79 inches Hg (1009.0 mb)
Winds: from the SW (220 degrees) at 2 MPH (2 knots; 1.0 m/s)
Visibility: 0.03 miles (0.05 km)
Ceiling: indefinite ceiling with vertical visibility of 0 feet AGL
Clouds: obscured sky
Weather: FG  (fog)

METAR text: VEPY 161000Z 00000KT 2000 HZ SCT012 SCT025 BKN090 24/19 Q1008 NOSIG
Conditions at: VEPY observed 1000 UTC 16 June 2019
Temperature: 24.0°C (75°F)
Dewpoint: 19.0°C (66°F) [RH = 74%]
Pressure (altimeter): 29.76 inches Hg (1008.0 mb)
Winds: calm
Visibility: 1.24 miles (2.00 km)
Ceiling: 9000 feet AGL
Clouds: scattered clouds at 1200 feet AGL
scattered clouds at 2500 feet AGL
broken clouds at 9000 feet AGL
Weather: HZ  (haze)

METAR text: VEPY 160930Z 00000KT 0800 FG FEW008 SCT012 SCT025 BKN090 24/19 Q1008 NOSIG
Conditions at: VEPY observed 0930 UTC 16 June 2019
Temperature: 24.0°C (75°F)
Dewpoint: 19.0°C (66°F) [RH = 74%]
Pressure (altimeter): 29.76 inches Hg (1008.0 mb)
Winds: calm
Visibility: 0.50 miles (0.80 km)
Ceiling: 9000 feet AGL
Clouds: few clouds at 800 feet AGL
scattered clouds at 1200 feet AGL
scattered clouds at 2500 feet AGL
broken clouds at 9000 feet AGL
Weather: FG  (fog)

METAR text: VEPY 160900Z 00000KT 0500 FG FEW008 SCT012 SCT025 BKN090 24/20 Q1008 NOSIG
Conditions at: VEPY observed 0900 UTC 16 June 2019
Temperature: 24.0°C (75°F)
Dewpoint: 20.0°C (68°F) [RH = 78%]
Pressure (altimeter): 29.76 inches Hg (1008.0 mb)
Winds: calm
Visibility: 0.31 miles (0.50 km)
Ceiling: 9000 feet AGL
Clouds: few clouds at 800 feet AGL
scattered clouds at 1200 feet AGL
scattered clouds at 2500 feet AGL
broken clouds at 9000 feet AGL
Weather: FG  (fog)

METAR text: VEPY 160830Z 00000KT 0500 FG FEW008 SCT012 SCT025 BKN090 24/20 Q1008 NOSIG
Conditions at: VEPY observed 0830 UTC 16 June 2019
Temperature: 24.0°C (75°F)
Dewpoint: 20.0°C (68°F) [RH = 78%]
Pressure (altimeter): 29.76 inches Hg (1008.0 mb)
Winds: calm
Visibility: 0.31 miles (0.50 km)
Ceiling: 9000 feet AGL
Clouds: few clouds at 800 feet AGL
scattered clouds at 1200 feet AGL
scattered clouds at 2500 feet AGL
broken clouds at 9000 feet AGL
Weather: FG  (fog)

METAR text: VEPY 160800Z 22002KT 0500 FG FEW008 SCT012 SCT025 BKN090 24/20 Q1008 NOSIG
Conditions at: VEPY observed 0800 UTC 16 June 2019
Temperature: 24.0°C (75°F)
Dewpoint: 20.0°C (68°F) [RH = 78%]
Pressure (altimeter): 29.76 inches Hg (1008.0 mb)
Winds: from the SW (220 degrees) at 2 MPH (2 knots; 1.0 m/s)
Visibility: 0.31 miles (0.50 km)
Ceiling: 9000 feet AGL
Clouds: few clouds at 800 feet AGL
scattered clouds at 1200 feet AGL
scattered clouds at 2500 feet AGL
broken clouds at 9000 feet AGL
Weather: FG  (fog)

METAR text: VEPY 160730Z 00000KT 2500 HZ SCT012 SCT025 BKN090 24/20 Q1008 NOSIG
Conditions at: VEPY observed 0730 UTC 16 June 2019
Temperature: 24.0°C (75°F)
Dewpoint: 20.0°C (68°F) [RH = 78%]
Pressure (altimeter): 29.76 inches Hg (1008.0 mb)
Winds: calm
Visibility: 1.55 miles (2.49 km)
Ceiling: 9000 feet AGL
Clouds: scattered clouds at 1200 feet AGL
scattered clouds at 2500 feet AGL
broken clouds at 9000 feet AGL
Weather: HZ  (haze)

METAR text: VEPY 160700Z 00000KT 2500 HZ SCT012 SCT025 BKN090 24/20 Q1008 NOSIG
Conditions at: VEPY observed 0700 UTC 16 June 2019
Temperature: 24.0°C (75°F)
Dewpoint: 20.0°C (68°F) [RH = 78%]
Pressure (altimeter): 29.76 inches Hg (1008.0 mb)
Winds: calm
Visibility: 1.55 miles (2.49 km)
Ceiling: 9000 feet AGL
Clouds: scattered clouds at 1200 feet AGL
scattered clouds at 2500 feet AGL
broken clouds at 9000 feet AGL
Weather: HZ  (haze)

METAR text: VEPY 160630Z 22002KT 0500 FG SCT010 SCT025 BKN090 24/20 Q1009 NOSIG
Conditions at: VEPY observed 0630 UTC 16 June 2019
Temperature: 24.0°C (75°F)
Dewpoint: 20.0°C (68°F) [RH = 78%]
Pressure (altimeter): 29.79 inches Hg (1009.0 mb)
Winds: from the SW (220 degrees) at 2 MPH (2 knots; 1.0 m/s)
Visibility: 0.31 miles (0.50 km)
Ceiling: 9000 feet AGL
Clouds: scattered clouds at 1000 feet AGL
scattered clouds at 2500 feet AGL
broken clouds at 9000 feet AGL
Weather: FG  (fog)

METAR text: VEPY 160600Z 18002KT 3500 HZ SCT010 SCT025 BKN090 23/20 Q1009 NOSIG
Conditions at: VEPY observed 0600 UTC 16 June 2019
Temperature: 23.0°C (73°F)
Dewpoint: 20.0°C (68°F) [RH = 83%]
Pressure (altimeter): 29.79 inches Hg (1009.0 mb)
Winds: from the S (180 degrees) at 2 MPH (2 knots; 1.0 m/s)
Visibility: 2.17 miles (3.49 km)
Ceiling: 9000 feet AGL
Clouds: scattered clouds at 1000 feet AGL
scattered clouds at 2500 feet AGL
broken clouds at 9000 feet AGL
Weather: HZ  (haze)

METAR text: VEPY 160532Z 22002KT 2500 BR SCT010 SCT025 BKN090 24/20 Q1009 NOSIG
Conditions at: VEPY observed 0532 UTC 16 June 2019
Temperature: 24.0°C (75°F)
Dewpoint: 20.0°C (68°F) [RH = 78%]
Pressure (altimeter): 29.79 inches Hg (1009.0 mb)
Winds: from the SW (220 degrees) at 2 MPH (2 knots; 1.0 m/s)
Visibility: 1.55 miles (2.49 km)
Ceiling: 9000 feet AGL
Clouds: scattered clouds at 1000 feet AGL
scattered clouds at 2500 feet AGL
broken clouds at 9000 feet AGL
Weather: BR  (mist)

METAR text: VEPY 160500Z 00000KT 1800 FG SCT010 SCT025 BKN090 23/20 Q1009 NOSIG
Conditions at: VEPY observed 0500 UTC 16 June 2019
Temperature: 23.0°C (73°F)
Dewpoint: 20.0°C (68°F) [RH = 83%]
Pressure (altimeter): 29.79 inches Hg (1009.0 mb)
Winds: calm
Visibility: 1.12 miles (1.80 km)
Ceiling: 9000 feet AGL
Clouds: scattered clouds at 1000 feet AGL
scattered clouds at 2500 feet AGL
broken clouds at 9000 feet AGL
Weather: FG  (fog)

METAR text: VEPY 160430Z 24002KT 0300 FG VV/// 23/19 Q1009 NOSIG
Conditions at: VEPY observed 0430 UTC 16 June 2019
Temperature: 23.0°C (73°F)
Dewpoint: 19.0°C (66°F) [RH = 78%]
Pressure (altimeter): 29.79 inches Hg (1009.0 mb)
Winds: from the WSW (240 degrees) at 2 MPH (2 knots; 1.0 m/s)
Visibility: 0.19 miles (0.31 km)
Ceiling: indefinite ceiling with vertical visibility of 0 feet AGL
Clouds: obscured sky
Weather: FG  (fog)

METAR text: VEPY 160400Z 24002KT 0100 FG VV/// 23/19 Q1009 NOSIG
Conditions at: VEPY observed 0400 UTC 16 June 2019
Temperature: 23.0°C (73°F)
Dewpoint: 19.0°C (66°F) [RH = 78%]
Pressure (altimeter): 29.79 inches Hg (1009.0 mb)
Winds: from the WSW (240 degrees) at 2 MPH (2 knots; 1.0 m/s)
Visibility: 0.06 miles (0.10 km)
Ceiling: indefinite ceiling with vertical visibility of 0 feet AGL
Clouds: obscured sky
Weather: FG  (fog)

METAR text: VEPY 160332Z 00000KT 0100 FG VV/// 22/19 Q1009 NOSIG
Conditions at: VEPY observed 0332 UTC 16 June 2019
Temperature: 22.0°C (72°F)
Dewpoint: 19.0°C (66°F) [RH = 83%]
Pressure (altimeter): 29.79 inches Hg (1009.0 mb)
Winds: calm
Visibility: 0.06 miles (0.10 km)
Ceiling: indefinite ceiling with vertical visibility of 0 feet AGL
Clouds: obscured sky
Weather: FG  (fog)

METAR text: VEPY 160330Z 00000KT 0100 FG VV/// 22/19 Q1009 NOSIG
Conditions at: VEPY observed 0330 UTC 16 June 2019
Temperature: 22.0°C (72°F)
Dewpoint: 19.0°C (66°F) [RH = 83%]
Pressure (altimeter): 29.79 inches Hg (1009.0 mb)
Winds: calm
Visibility: 0.06 miles (0.10 km)
Ceiling: indefinite ceiling with vertical visibility of 0 feet AGL
Clouds: obscured sky
Weather: FG  (fog)